Flight Track Log - Related Links

Times and Time Zones

All times are in EDT time to prevent confusion due to time zone crossing. See the AAL963 flight status page for this flight to view local times or setup timezone preferences in your user account.

Time Position Orientation Groundspeed Altitude Reporting Facility
EDT Latitude Longitude Course Direction KTS MPH feet Rate Location/Type
Mon 09:01:47 PM 32.8300 -97.0630 194° South 211 243 2,400  Level FlightAware ADS-B
Mon 09:02:17 PM 32.7970 -97.0720 193° South 241 277 3,100 1,636 Climbing FlightAware ADS-B
Mon 09:02:42 PM 32.7700 -97.0790 192° South 245 282 3,900 2,291 Climbing FlightAware ADS-B
Mon 09:03:12 PM 32.7370 -97.0870 192° South 243 280 5,200 2,182 Climbing FlightAware ADS-B
Mon 09:03:37 PM 32.7090 -97.0940 192° South 250 288 5,900 1,650 Climbing FlightAware ADS-B
Mon 09:03:52 PM 32.6920 -97.0920 174° South 253 291 6,300 1,600 Climbing FlightAware ADS-B
Mon 09:04:07 PM 32.6760 -97.0840 157° South 259 298 6,700 1,650 Climbing FlightAware ADS-B
Mon 09:04:32 PM 32.6490 -97.0660 151° Southeast 271 312 7,400 1,855 Climbing FlightAware ADS-B
Mon 09:05:02 PM 32.6160 -97.0430 150° Southeast 275 316 8,400 1,900 Climbing FlightAware ADS-B
Mon 09:05:32 PM 32.5810 -97.0200 151° Southeast 285 328 9,300 1,745 Climbing FlightAware ADS-B
Mon 09:05:57 PM 32.5530 -97.0000 149° Southeast 292 336 10,000 1,200 Climbing FlightAware ADS-B
Mon 09:06:42 PM 32.4970 -96.9620 150° Southeast 327 376 10,700 1,059 Climbing FlightAware ADS-B
Mon 09:07:22 PM 32.4410 -96.9230 150° Southeast 359 413 11,500 1,350 Climbing FlightAware ADS-B
Mon 09:08:02 PM 32.3820 -96.8820 150° Southeast 382 440 12,500 1,835 Climbing FlightAware ADS-B
Mon 09:08:47 PM 32.3130 -96.8350 150° Southeast 395 455 14,100 2,067 Climbing FlightAware ADS-B
Mon 09:09:32 PM 32.2380 -96.7980 157° South 405 466 15,600 2,105 Climbing FlightAware ADS-B
Mon 09:09:44 PM 32.2101 -96.7866 161° South 410 472 16,100 2,093 Climbing FlightAware ADS-B
Mon 09:10:15 PM 32.1530 -96.7651 162° South 419 482 17,100 2,095 Climbing FlightAware ADS-B
Mon 09:10:47 PM 32.0942 -96.7431 162° South 421 484 18,300 2,190 Climbing FlightAware ADS-B
Mon 09:11:18 PM 32.0365 -96.7212 162° South 425 489 19,400 1,909 Climbing FlightAware ADS-B
Mon 09:12:15 PM 31.9285 -96.6801 162° South 436 502 21,100 1,655 Climbing FlightAware ADS-B
Mon 09:12:45 PM 31.8696 -96.6577 162° South 449 517 21,800 1,347 Climbing FlightAware ADS-B
Mon 09:13:04 PM 31.8324 -96.6427 161° South 454 522 22,200 1,588 Climbing FlightAware ADS-B
Mon 09:13:19 PM 31.8028 -96.6303 160° South 457 526 22,700 1,800 Climbing FlightAware ADS-B
Mon 09:13:34 PM 31.7722 -96.6175 160° South 458 527 23,100 1,742 Climbing FlightAware ADS-B
Mon 09:13:50 PM 31.7397 -96.6040 161° South 460 529 23,600 1,742 Climbing FlightAware ADS-B
Mon 09:14:05 PM 31.7091 -96.5913 161° South 461 531 24,000 1,742 Climbing FlightAware ADS-B
Mon 09:14:21 PM 31.6781 -96.5786 161° South 463 533 24,500 1,636 Climbing FlightAware ADS-B
Mon 09:14:38 PM 31.6423 -96.5640 161° South 465 535 24,900 1,200 Climbing FlightAware ADS-B
Mon 09:14:51 PM 31.6170 -96.5537 161° South 470 541 25,100 1,161 Climbing FlightAware ADS-B
Mon 09:15:09 PM 31.5786 -96.5382 161° South 472 543 25,500 1,400 Climbing FlightAware ADS-B
Mon 09:15:21 PM 31.5545 -96.5285 161° South 474 545 25,800 1,400 Climbing FlightAware ADS-B
Mon 09:15:39 PM 31.5160 -96.5128 161° South 478 550 26,200 1,355 Climbing FlightAware ADS-B
Mon 09:15:52 PM 31.4901 -96.5026 161° South 479 551 26,500 1,313 Climbing FlightAware ADS-B
Mon 09:16:11 PM 31.4484 -96.4870 162° South 480 552 26,900 1,400 Climbing FlightAware ADS-B
Mon 09:16:22 PM 31.4248 -96.4784 163° South 482 555 27,200 1,355 Climbing FlightAware ADS-B
Mon 09:16:42 PM 31.3834 -96.4632 163° South 484 557 27,600 1,161 Climbing FlightAware ADS-B
Mon 09:16:53 PM 31.3601 -96.4546 163° South 485 558 27,800 1,400 Climbing FlightAware ADS-B
Mon 09:17:12 PM 31.3183 -96.4391 162° South 486 559 28,300 1,500 Climbing FlightAware ADS-B
Mon 09:17:21 PM 31.2996 -96.4322 163° South 485 558 28,500 1,161 Climbing FlightAware ADS-B
Mon 09:17:43 PM 31.2529 -96.4148 162° South 488 562 28,900 1,000 Climbing FlightAware ADS-B
Mon 09:17:51 PM 31.2343 -96.4079 162° South 488 562 29,000 1,200 Climbing FlightAware ADS-B
Mon 09:17:58 PM 31.2203 -96.4025 162° South 489 563 29,200 1,636 Climbing FlightAware ADS-B
Mon 09:18:02 PM 31.2116 -96.3987 160° South 490 564 29,300 1,000 Climbing FlightAware ADS-B
Mon 09:18:04 PM 31.2079 -96.3968 156° South 491 565 29,300 1,500 Level FlightAware ADS-B
Mon 09:18:10 PM 31.1952 -96.3897 154° Southeast 492 566 29,500 1,636 Climbing FlightAware ADS-B
Mon 09:18:15 PM 31.1848 -96.3829 151° Southeast 493 567 29,600 1,500 Climbing FlightAware ADS-B
Mon 09:18:18 PM 31.1799 -96.3794 149° Southeast 495 570 29,700 1,333 Climbing FlightAware ADS-B
Mon 09:18:24 PM 31.1677 -96.3695 145° Southeast 498 573 29,800  Climbing FlightAware ADS-B
Mon 09:18:25 PM 31.1666 -96.3686 145° Southeast 499 574 29,700  Descending FlightAware ADS-B
Mon 09:18:31 PM 31.1553 -96.3577 140° Southeast 502 578 29,800 1,333 Climbing FlightAware ADS-B
Mon 09:18:34 PM 31.1504 -96.3523 137° Southeast 502 578 29,900 1,500 Climbing FlightAware ADS-B
Mon 09:18:39 PM 31.1424 -96.3428 135° Southeast 505 581 30,000 1,000 Climbing FlightAware ADS-B
Mon 09:18:40 PM 31.1407 -96.3406 132° Southeast 505 581 30,000 1,800 Level FlightAware ADS-B
Mon 09:18:49 PM 31.1277 -96.3216 129° Southeast 506 582 30,300 2,000 Climbing FlightAware ADS-B
Mon 09:19:10 PM 31.0987 -96.2749 126° Southeast 501 577 31,000 2,000 Climbing FlightAware ADS-B
Mon 09:19:19 PM 31.0866 -96.2552 126° Southeast 498 573 31,300 1,600 Climbing FlightAware ADS-B
Mon 09:19:40 PM 31.0585 -96.2094 126° Southeast 496 571 31,800 1,400 Climbing FlightAware ADS-B
Mon 09:19:49 PM 31.0466 -96.1898 125° Southeast 495 570 32,000 1,355 Climbing FlightAware ADS-B
Mon 09:20:11 PM 31.0172 -96.1416 125° Southeast 494 568 32,500 1,200 Climbing FlightAware ADS-B
Mon 09:20:19 PM 31.0063 -96.1239 126° Southeast 494 568 32,600 774 Climbing FlightAware ADS-B
Mon 09:20:42 PM 30.9762 -96.0749 126° Southeast 497 572 32,900 774 Climbing FlightAware ADS-B
Mon 09:20:50 PM 30.9662 -96.0586 126° Southeast 498 573 33,000 1,059 Climbing FlightAware ADS-B
Mon 09:20:59 PM 30.9532 -96.0378 126° Southeast 498 573 33,200 720 Climbing FlightAware ADS-B
Mon 09:21:15 PM 30.9309 -96.0047 128° Southeast 498 573 33,300 632 Climbing FlightAware ADS-B
Mon 09:21:37 PM 30.8971 -95.9597 131° Southeast 497 572 33,600 857 Climbing FlightAware ADS-B
Mon 09:21:43 PM 30.8883 -95.9488 133° Southeast 496 571 33,700 1,000 Climbing FlightAware ADS-B
Mon 09:21:55 PM 30.8690 -95.9261 135° Southeast 494 568 33,900 1,000 Climbing FlightAware ADS-B
Mon 09:22:13 PM 30.8394 -95.8924 136° Southeast 494 568 34,200 600 Climbing FlightAware ADS-B
Mon 09:22:25 PM 30.8190 -95.8694 136° Southeast 497 572 34,200 200 Level FlightAware ADS-B
Mon 09:22:43 PM 30.7894 -95.8358 136° Southeast 501 577 34,300 387 Climbing FlightAware ADS-B
Mon 09:22:56 PM 30.7675 -95.8113 136° Southeast 502 578 34,400 600 Climbing FlightAware ADS-B
Mon 09:23:13 PM 30.7391 -95.7794 136° Southeast 503 579 34,600 750 Climbing FlightAware ADS-B
Mon 09:23:28 PM 30.7146 -95.7517 136° Southeast 504 580 34,800 774 Climbing FlightAware ADS-B
Mon 09:23:44 PM 30.6887 -95.7225 136° Southeast 504 580 35,000 400 Climbing FlightAware ADS-B
Mon 09:23:58 PM 30.6639 -95.6945 136° Southeast 505 581 35,000  Level FlightAware ADS-B
Mon 09:24:14 PM 30.6377 -95.6649 136° Southeast 505 581 35,000  Level FlightAware ADS-B
Mon 09:24:29 PM 30.6130 -95.6372 136° Southeast 504 580 35,000  Level FlightAware ADS-B
Mon 09:24:44 PM 30.5873 -95.6082 136° Southeast 504 580 35,000  Level FlightAware ADS-B
Mon 09:24:59 PM 30.5625 -95.5804 136° Southeast 504 580 35,000  Level FlightAware ADS-B
Mon 09:25:14 PM 30.5371 -95.5517 136° Southeast 503 579 35,000  Level FlightAware ADS-B
Mon 09:25:29 PM 30.5121 -95.5235 136° Southeast 502 578 35,000  Level FlightAware ADS-B
Mon 09:25:45 PM 30.4853 -95.4935 136° Southeast 504 580 35,000  Level FlightAware ADS-B
Mon 09:26:00 PM 30.4614 -95.4667 136° Southeast 504 580 35,000  Level FlightAware ADS-B
Mon 09:26:17 PM 30.4314 -95.4331 136° Southeast 504 580 35,000  Level FlightAware ADS-B
Mon 09:26:30 PM 30.4106 -95.4099 136° Southeast 506 582 35,000  Level FlightAware ADS-B
Mon 09:26:48 PM 30.3805 -95.3762 136° Southeast 506 582 35,000  Level FlightAware ADS-B
Mon 09:27:01 PM 30.3584 -95.3516 136° Southeast 506 582 35,000  Level FlightAware ADS-B
Mon 09:27:19 PM 30.3278 -95.3173 136° Southeast 506 582 35,000  Level FlightAware ADS-B
Mon 09:27:31 PM 30.3073 -95.2944 136° Southeast 507 583 35,000  Level FlightAware ADS-B
Mon 09:27:50 PM 30.2764 -95.2600 136° Southeast 507 583 35,000  Level FlightAware ADS-B
Mon 09:28:02 PM 30.2559 -95.2372 136° Southeast 507 583 35,000  Level FlightAware ADS-B
Mon 09:28:22 PM 30.2214 -95.1989 136° Southeast 508 585 35,000  Level FlightAware ADS-B
Mon 09:28:32 PM 30.2045 -95.1801 136° Southeast 508 585 35,000  Level FlightAware ADS-B
Mon 09:28:52 PM 30.1702 -95.1419 136° Southeast 507 583 35,000  Level FlightAware ADS-B
Mon 09:29:02 PM 30.1536 -95.1235 136° Southeast 508 585 35,000  Level FlightAware ADS-B
Mon 09:29:25 PM 30.1154 -95.0811 136° Southeast 507 583 35,000  Level FlightAware ADS-B
Mon 09:29:32 PM 30.1024 -95.0667 136° Southeast 507 583 35,000  Level FlightAware ADS-B
Mon 09:29:55 PM 30.0638 -95.0239 136° Southeast 506 582 35,000  Level FlightAware ADS-B
Mon 09:30:03 PM 30.0511 -95.0099 136° Southeast 506 582 35,000  Level FlightAware ADS-B
Mon 09:30:26 PM 30.0127 -94.9673 136° Southeast 506 582 35,000  Level FlightAware ADS-B
Mon 09:30:33 PM 30.0004 -94.9538 136° Southeast 505 581 35,000  Level FlightAware ADS-B
Mon 09:30:57 PM 29.9598 -94.9089 136° Southeast 504 580 35,000  Level FlightAware ADS-B
Mon 09:31:03 PM 29.9497 -94.8977 136° Southeast 504 580 35,000  Level FlightAware ADS-B
Mon 09:31:28 PM 29.9084 -94.8522 136° Southeast 504 580 35,000  Level FlightAware ADS-B
Mon 09:31:33 PM 29.8986 -94.8414 136° Southeast 506 582 35,000  Level FlightAware ADS-B
Mon 09:31:58 PM 29.8565 -94.7950 136° Southeast 507 583 35,000  Level FlightAware ADS-B
Mon 09:32:05 PM 29.8454 -94.7829 137° Southeast 508 585 35,000  Level FlightAware ADS-B
Mon 09:32:29 PM 29.8043 -94.7376 136° Southeast 509 586 35,000  Level FlightAware ADS-B
Mon 09:32:36 PM 29.7918 -94.7240 137° Southeast 509 586 35,000  Level FlightAware ADS-B
Mon 09:32:59 PM 29.7527 -94.6810 136° Southeast 509 586 35,000  Level FlightAware ADS-B
Mon 09:33:06 PM 29.7404 -94.6675 136° Southeast 509 586 35,000  Level FlightAware ADS-B
Mon 09:33:30 PM 29.7001 -94.6234 136° Southeast 510 587 35,000  Level FlightAware ADS-B
Mon 09:33:37 PM 29.6888 -94.6110 136° Southeast 511 588 35,000  Level FlightAware ADS-B
Mon 09:34:00 PM 29.6486 -94.5670 136° Southeast 512 589 35,000  Level FlightAware ADS-B
Mon 09:34:07 PM 29.6366 -94.5538 136° Southeast 512 589 35,000  Level FlightAware ADS-B
Mon 09:34:30 PM 29.5966 -94.5102 137° Southeast 512 589 35,000  Level FlightAware ADS-B
Mon 09:34:37 PM 29.5846 -94.4971 136° Southeast 513 590 35,000  Level FlightAware ADS-B
Mon 09:35:01 PM 29.5440 -94.4527 136° Southeast 513 590 35,000  Level FlightAware ADS-B
Mon 09:35:08 PM 29.5328 -94.4406 137° Southeast 513 590 35,000  Level FlightAware ADS-B
Mon 09:35:33 PM 29.4895 -94.3934 136° Southeast 512 589 35,000  Level FlightAware ADS-B
Mon 09:35:38 PM 29.4807 -94.3839 137° Southeast 512 589 35,000  Level FlightAware ADS-B
Mon 09:36:05 PM 29.4341 -94.3331 136° Southeast 511 588 35,000  Level FlightAware ADS-B
Mon 09:36:08 PM 29.4289 -94.3275 137° Southeast 511 588 35,000  Level FlightAware ADS-B
Mon 09:36:38 PM 29.3784 -94.2725 136° Southeast 511 588 35,000  Level FlightAware ADS-B
Mon 09:37:08 PM 29.3269 -94.2166 137° Southeast 511 588 35,000  Level FlightAware ADS-B
Mon 09:37:40 PM 29.2713 -94.1563 137° Southeast 508 585 35,000  Level FlightAware ADS-B
Mon 09:38:01 PM 29.2364 -94.1184 137° Southeast 507 583 35,000  Level FlightAware ADS-B
Mon 09:38:10 PM 29.2195 -94.1002 137° Southeast 506 582 35,000  Level FlightAware ADS-B
Mon 09:38:40 PM 29.1686 -94.0452 137° Southeast 504 580 35,000  Level FlightAware ADS-B
Mon 09:39:15 PM 29.1322 -94.0058 137° Southeast 507 583 35,000  Level Houston Center
Mon 09:40:16 PM 29.0308 -93.8964 137° Southeast 501 577 35,000  Level Houston Center
Mon 09:41:17 PM 28.9128 -93.7694 137° Southeast 502 578 35,000  Level Houston Center
Mon 09:42:18 PM 28.8056 -93.6536 137° Southeast 508 585 35,000  Level Houston Center
Mon 09:43:20 PM 28.7017 -93.5439 137° Southeast 510 587 35,000  Level Houston Center
Mon 09:44:21 PM 28.6028 -93.4383 137° Southeast 511 588 35,000  Level Houston Center
Mon 09:45:22 PM 28.4939 -93.3217 137° Southeast 512 589 35,000 -49 Level Houston Center
Mon 09:46:24 PM 28.3950 -93.2164 137° Southeast 514 592 34,900 -49 Descending Houston Center
Mon 09:47:25 PM 28.2892 -93.1058 137° Southeast 517 595 34,900 15 Level Houston Center
Mon 09:53:05 PM 27.6578 -92.4462 137° Southeast 529 609 35,000 16 Climbing FlightAware ADS-B
Mon 09:53:36 PM 27.6032 -92.3897 137° Southeast 529 609 35,000  Level FlightAware ADS-B
Mon 09:54:19 PM 27.5247 -92.3084 137° Southeast 529 609 35,000 -50 Level FlightAware ADS-B
Mon 09:55:35 PM 27.4094 -92.1914 137° Southeast 527 606 34,900  Descending Houston Center
Mon 09:56:36 PM 27.3006 -92.0792 138° Southeast 529 609 35,000  Climbing Houston Center
Mon 09:58:00 PM 27.1669 -91.9336 136° Southeast  Level FlightAware Approximate
Mon 09:58:38 PM 27.0536 -91.8500 136° Southeast 525 604 34,900  Level Houston Center
Mon 10:00:41 PM 26.8233 -91.6669 145° Southeast 515 593 34,900  Level Houston Center
Mon 10:01:42 PM 26.7111 -91.5806 145° Southeast 507 583 34,900 Level Houston Center
Mon 10:03:00 PM 26.5720 -91.4658 144° Southeast  Level FlightAware Approximate
Mon 10:10:00 PM 25.8140 -90.8643 145° Southeast  Level FlightAware Approximate
Mon 10:11:00 PM 25.7051 -90.7798 145° Southeast  Level FlightAware Approximate
Mon 10:12:00 PM 25.5963 -90.6951 145° Southeast  Level FlightAware Approximate
Mon 10:13:00 PM 25.4875 -90.6104 145° Southeast  Level FlightAware Approximate
Mon 10:14:00 PM 25.3787 -90.5258 145° Southeast  Level FlightAware Approximate
Mon 10:15:00 PM 25.2698 -90.4415 145° Southeast  Level FlightAware Approximate
Mon 10:16:00 PM 25.1609 -90.3572 145° Southeast  Level FlightAware Approximate
Mon 10:17:00 PM 25.0519 -90.2731 145° Southeast  Level FlightAware Approximate
Mon 10:18:00 PM 24.9429 -90.1892 145° Southeast  Level FlightAware Approximate
Mon 10:19:00 PM 24.8339 -90.1054 145° Southeast  Level FlightAware Approximate
Mon 10:20:00 PM 24.7248 -90.0218 145° Southeast  Level FlightAware Approximate
Mon 10:21:00 PM 24.6156 -89.9383 145° Southeast  Level FlightAware Approximate
Mon 10:22:00 PM 24.5064 -89.8549 145° Southeast  Level FlightAware Approximate
Mon 10:23:00 PM 24.4075 -89.7575 138° Southeast  Level FlightAware Approximate
Mon 10:24:00 PM 24.3094 -89.6590 136° Southeast  Level FlightAware Approximate
Mon 10:25:00 PM 24.2133 -89.5583 136° Southeast  Level FlightAware Approximate
Mon 10:26:00 PM 24.1171 -89.4577 136° Southeast  Level FlightAware Approximate
Mon 10:27:00 PM 24.0209 -89.3573 136° Southeast  Level FlightAware Approximate
Mon 10:28:00 PM 23.9246 -89.2570 136° Southeast  Level FlightAware Approximate
Mon 10:29:00 PM 23.8283 -89.1568 136° Southeast  Level FlightAware Approximate
Mon 10:30:00 PM 23.7319 -89.0568 136° Southeast  Level FlightAware Approximate
Mon 10:31:00 PM 23.6354 -88.9570 137° Southeast  Level FlightAware Approximate
Mon 10:32:00 PM 23.5388 -88.8573 137° Southeast  Level FlightAware Approximate
Mon 10:33:00 PM 23.4422 -88.7577 137° Southeast  Level FlightAware Approximate
Mon 10:34:00 PM 23.3456 -88.6583 137° Southeast  Level FlightAware Approximate
Mon 10:35:00 PM 23.2488 -88.5591 137° Southeast  Level FlightAware Approximate
Mon 10:36:00 PM 23.1520 -88.4599 137° Southeast  Level FlightAware Approximate
Mon 10:37:00 PM 23.0552 -88.3610 137° Southeast  Level FlightAware Approximate
Mon 10:38:00 PM 22.9582 -88.2621 137° Southeast  Level FlightAware Approximate
Mon 10:39:00 PM 22.8613 -88.1634 137° Southeast  Level FlightAware Approximate
Mon 10:40:00 PM 22.7642 -88.0649 137° Southeast  Level FlightAware Approximate
Mon 10:41:00 PM 22.6674 -87.9661 137° Southeast  Level FlightAware Approximate
Mon 10:42:00 PM 22.5708 -87.8671 137° Southeast  Level FlightAware Approximate
Mon 10:43:00 PM 22.4742 -87.7683 137° Southeast  Level FlightAware Approximate
Mon 10:44:00 PM 22.3775 -87.6696 137° Southeast  Level FlightAware Approximate
Mon 10:45:00 PM 22.2808 -87.5711 137° Southeast  Level FlightAware Approximate
Mon 10:46:00 PM 22.1840 -87.4727 137° Southeast  Level FlightAware Approximate
Mon 10:47:00 PM 22.0871 -87.3744 137° Southeast  Level FlightAware Approximate
Mon 10:48:00 PM 21.9902 -87.2763 137° Southeast  Level FlightAware Approximate
Mon 10:49:00 PM 21.8932 -87.1783 137° Southeast  Level FlightAware Approximate
Mon 10:50:00 PM 21.7962 -87.0804 137° Southeast  Level FlightAware Approximate
Mon 10:51:00 PM 21.6991 -86.9826 137° Southeast  Level FlightAware Approximate
Mon 10:52:00 PM 21.6014 -86.8856 138° Southeast  Level FlightAware Approximate
Mon 10:53:00 PM 21.5033 -86.7892 138° Southeast  Level FlightAware Approximate
Mon 10:54:00 PM 21.4051 -86.6929 138° Southeast  Level FlightAware Approximate
Mon 10:55:00 PM 21.3068 -86.5968 138° Southeast  Level FlightAware Approximate
Mon 10:56:00 PM 21.2085 -86.5008 138° Southeast  Level FlightAware Approximate
Mon 10:57:00 PM 21.1102 -86.4049 138° Southeast  Level FlightAware Approximate
Mon 10:58:00 PM 21.0117 -86.3092 138° Southeast  Level FlightAware Approximate
Mon 10:59:00 PM 20.9133 -86.2135 138° Southeast  Level FlightAware Approximate
Mon 11:00:00 PM 20.8148 -86.1180 138° Southeast  Level FlightAware Approximate
Mon 11:01:00 PM 20.7162 -86.0227 138° Southeast  Level FlightAware Approximate
Mon 11:02:00 PM 20.6175 -85.9274 138° Southeast  Level FlightAware Approximate
Mon 11:03:00 PM 20.5189 -85.8323 138° Southeast  Level FlightAware Approximate
Mon 11:04:00 PM 20.4204 -85.7370 137° Southeast  Level FlightAware Approximate
Mon 11:05:00 PM 20.3235 -85.6400 137° Southeast  Level FlightAware Approximate
Mon 11:06:00 PM 20.2265 -85.5430 137° Southeast  Level FlightAware Approximate
Mon 11:07:00 PM 20.1294 -85.4463 138° Southeast  Level FlightAware Approximate
Mon 11:08:00 PM 20.0309 -85.3512 138° Southeast  Level FlightAware Approximate
Mon 11:09:00 PM 19.9324 -85.2563 138° Southeast  Level FlightAware Approximate
Mon 11:10:00 PM 19.8338 -85.1615 138° Southeast  Level FlightAware Approximate
Mon 11:11:00 PM 19.7351 -85.0669 138° Southeast  Level FlightAware Approximate
Mon 11:12:00 PM 19.6364 -84.9723 138° Southeast  Level FlightAware Approximate
Mon 11:13:00 PM 19.5376 -84.8779 138° Southeast  Level FlightAware Approximate
Mon 11:14:00 PM 19.4388 -84.7835 138° Southeast  Level FlightAware Approximate
Mon 11:15:00 PM 19.3400 -84.6893 138° Southeast  Level FlightAware Approximate
Mon 11:16:00 PM 19.2411 -84.5953 138° Southeast  Level FlightAware Approximate
Mon 11:17:00 PM 19.1421 -84.5013 138° Southeast  Level FlightAware Approximate
Mon 11:18:00 PM 19.0431 -84.4074 138° Southeast  Level FlightAware Approximate
Mon 11:19:00 PM 18.9440 -84.3137 138° Southeast  Level FlightAware Approximate
Mon 11:20:00 PM 18.8449 -84.2200 138° Southeast  Level FlightAware Approximate
Mon 11:21:00 PM 18.7458 -84.1265 138° Southeast  Level FlightAware Approximate
Mon 11:22:00 PM 18.6468 -84.0328 138° Southeast  Level FlightAware Approximate
Mon 11:23:00 PM 18.5480 -83.9390 138° Southeast  Level FlightAware Approximate
Mon 11:24:00 PM 18.4491 -83.8454 138° Southeast  Level FlightAware Approximate
Mon 11:25:00 PM 18.3501 -83.7518 138° Southeast  Level FlightAware Approximate
Mon 11:26:00 PM 18.2511 -83.6584 138° Southeast  Level FlightAware Approximate
Mon 11:27:00 PM 18.1521 -83.5650 138° Southeast  Level FlightAware Approximate
Mon 11:28:00 PM 18.0530 -83.4718 138° Southeast  Level FlightAware Approximate
Mon 11:29:00 PM 17.9539 -83.3787 138° Southeast  Level FlightAware Approximate
Mon 11:30:00 PM 17.8547 -83.2856 138° Southeast  Level FlightAware Approximate
Mon 11:31:00 PM 17.7555 -83.1927 138° Southeast  Level FlightAware Approximate
Mon 11:32:00 PM 17.6563 -83.0999 138° Southeast  Level FlightAware Approximate
Mon 11:33:00 PM 17.5570 -83.0072 138° Southeast  Level FlightAware Approximate
Mon 11:34:00 PM 17.4576 -82.9146 138° Southeast  Level FlightAware Approximate
Mon 11:35:00 PM 17.3583 -82.8220 138° Southeast  Level FlightAware Approximate
Mon 11:36:00 PM 17.2589 -82.7296 138° Southeast  Level FlightAware Approximate
Mon 11:37:00 PM 17.1594 -82.6373 138° Southeast  Level FlightAware Approximate
Mon 11:38:00 PM 17.0599 -82.5451 138° Southeast  Level FlightAware Approximate
Mon 11:39:00 PM 16.9603 -82.4529 138° Southeast  Level FlightAware Approximate
Mon 11:40:00 PM 16.8607 -82.3609 139° Southeast  Level FlightAware Approximate
Mon 11:41:00 PM 16.7611 -82.2690 139° Southeast  Level FlightAware Approximate
Mon 11:42:00 PM 16.6614 -82.1772 139° Southeast  Level FlightAware Approximate
Mon 11:43:00 PM 16.5608 -82.0865 139° Southeast  Level FlightAware Approximate
Mon 11:44:00 PM 16.4600 -81.9961 139° Southeast  Level FlightAware Approximate
Mon 11:45:00 PM 16.3592 -81.9058 139° Southeast  Level FlightAware Approximate
Mon 11:46:00 PM 16.2584 -81.8156 139° Southeast  Level FlightAware Approximate
Mon 11:47:00 PM 16.1575 -81.7254 139° Southeast  Level FlightAware Approximate
Mon 11:48:00 PM 16.0566 -81.6354 139° Southeast  Level FlightAware Approximate
Mon 11:49:00 PM 15.9556 -81.5454 139° Southeast  Level FlightAware Approximate
Mon 11:50:00 PM 15.8544 -81.4554 139° Southeast  Level FlightAware Approximate
Mon 11:51:00 PM 15.7532 -81.3655 139° Southeast  Level FlightAware Approximate
Mon 11:52:00 PM 15.6519 -81.2756 139° Southeast  Level FlightAware Approximate
Mon 11:53:00 PM 15.5507 -81.1859 140° Southeast  Level FlightAware Approximate
Mon 11:54:00 PM 15.4493 -81.0962 140° Southeast  Level FlightAware Approximate
Mon 11:55:00 PM 15.3480 -81.0066 140° Southeast  Level FlightAware Approximate
Mon 11:56:00 PM 15.2466 -80.9171 140° Southeast  Level FlightAware Approximate
Mon 11:57:00 PM 15.1451 -80.8277 140° Southeast  Level FlightAware Approximate
Mon 11:58:00 PM 15.0437 -80.7384 140° Southeast  Level FlightAware Approximate
Mon 11:59:00 PM 14.9425 -80.6488 139° Southeast  Level FlightAware Approximate
Tue 12:00:00 AM 14.8416 -80.5589 139° Southeast  Level FlightAware Approximate
Tue 12:01:00 AM 14.7406 -80.4690 139° Southeast  Level FlightAware Approximate
Tue 12:02:00 AM 14.6397 -80.3793 139° Southeast  Level FlightAware Approximate
Tue 12:03:00 AM 14.5386 -80.2896 139° Southeast  Level FlightAware Approximate
Tue 12:04:00 AM 14.4376 -80.2001 139° Southeast  Level FlightAware Approximate
Tue 12:05:00 AM 14.3365 -80.1106 139° Southeast  Level FlightAware Approximate
Tue 12:06:00 AM 14.2353 -80.0212 139° Southeast  Level FlightAware Approximate
Tue 12:07:00 AM 14.1342 -79.9318 139° Southeast  Level FlightAware Approximate
Tue 12:08:00 AM 14.0330 -79.8426 139° Southeast  Level FlightAware Approximate
Tue 12:09:00 AM 13.9318 -79.7534 139° Southeast  Level FlightAware Approximate
Tue 12:10:00 AM 13.8305 -79.6643 139° Southeast  Level FlightAware Approximate
Tue 12:11:00 AM 13.7292 -79.5753 140° Southeast  Level FlightAware Approximate
Tue 12:12:00 AM 13.6279 -79.4864 140° Southeast  Level FlightAware Approximate
Tue 12:13:00 AM 13.5266 -79.3975 140° Southeast  Level FlightAware Approximate
Tue 12:14:00 AM 13.4252 -79.3088 140° Southeast  Level FlightAware Approximate
Tue 12:15:00 AM 13.3237 -79.2200 140° Southeast  Level FlightAware Approximate
Tue 12:16:00 AM 13.2223 -79.1314 140° Southeast  Level FlightAware Approximate
Tue 12:17:00 AM 13.1208 -79.0429 140° Southeast  Level FlightAware Approximate
Tue 12:18:00 AM 13.0193 -78.9544 140° Southeast  Level FlightAware Approximate
Tue 12:19:00 AM 12.9178 -78.8660 140° Southeast  Level FlightAware Approximate
Tue 12:20:00 AM 12.8162 -78.7776 140° Southeast  Level FlightAware Approximate
Tue 12:21:00 AM 12.7146 -78.6893 140° Southeast  Level FlightAware Approximate
Tue 12:22:00 AM 12.6130 -78.6012 140° Southeast  Level FlightAware Approximate
Tue 12:22:07 AM 11.4090 -77.7650 140° Southeast 472 543 35,000  Level FlightAware ADS-B
Tue 12:22:52 AM 11.3420 -77.7110 142° Southeast 472 543 35,000  Level FlightAware ADS-B
Tue 12:23:00 AM 12.5113 -78.5130 140° Southeast  Level FlightAware Approximate
Tue 12:23:32 AM 11.2830 -77.6650 143° Southeast 472 543 35,000  Level FlightAware ADS-B
Tue 12:24:22 AM 11.2100 -77.6070 142° Southeast 472 543 35,000  Level FlightAware ADS-B
Tue 12:25:02 AM 11.1510 -77.5600 142° Southeast 472 543 35,000  Level FlightAware ADS-B
Tue 12:25:42 AM 11.0930 -77.5130 142° Southeast 472 543 35,000  Level FlightAware ADS-B
Tue 12:26:27 AM 10.9580 -77.4140 144° Southeast 470 541 35,000  Level FlightAware ADS-B
Tue 12:27:07 AM 10.8970 -77.3590 138° Southeast 478 550 35,000  Level FlightAware ADS-B
Tue 12:27:52 AM 10.8140 -77.2820 138° Southeast 479 551 35,000  Level FlightAware ADS-B
Tue 12:28:32 AM 10.7480 -77.2200 137° Southeast 480 552 35,000  Level FlightAware ADS-B
Tue 12:29:22 AM 10.6720 -77.1480 137° Southeast 479 551 35,000  Level FlightAware ADS-B
Tue 12:30:12 AM 10.6030 -77.0830 137° Southeast 479 551 35,000  Level FlightAware ADS-B
Tue 12:31:17 AM 10.4810 -76.9710 138° Southeast 481 554 35,000  Level FlightAware ADS-B
Tue 12:31:57 AM 10.4150 -76.9100 138° Southeast 481 554 35,000  Level FlightAware ADS-B
Tue 12:32:37 AM 10.3510 -76.8500 137° Southeast 481 554 35,000  Level FlightAware ADS-B
Tue 12:33:22 AM 10.2750 -76.7800 138° Southeast 482 555 35,000  Level FlightAware ADS-B
Tue 12:34:07 AM 10.2070 -76.7160 137° Southeast 482 555 35,000  Level FlightAware ADS-B
Tue 12:34:47 AM 10.1510 -76.6630 137° Southeast 482 555 35,000  Level FlightAware ADS-B
Tue 12:35:37 AM 10.0510 -76.5730 138° Southeast 482 555 35,000  Level FlightAware ADS-B
Tue 12:36:32 AM 9.9610 -76.4890 137° Southeast 480 552 35,000  Level FlightAware ADS-B
Tue 12:37:27 AM 9.8700 -76.4050 138° Southeast 479 551 35,000  Level FlightAware ADS-B
Tue 12:38:22 AM 9.7790 -76.3200 137° Southeast 479 551 35,000  Level FlightAware ADS-B
Tue 12:39:07 AM 9.7090 -76.2560 138° Southeast 479 551 35,000  Level FlightAware ADS-B
Tue 12:40:02 AM 9.6230 -76.1750 137° Southeast 478 550 35,000  Level FlightAware ADS-B
Tue 12:40:42 AM 9.5620 -76.1190 138° Southeast 478 550 35,000  Level FlightAware ADS-B
Tue 12:41:22 AM 9.5070 -76.0670 137° Southeast 478 550 35,000  Level FlightAware ADS-B
Tue 12:42:02 AM 9.4520 -76.0150 137° Southeast 478 550 35,000  Level FlightAware ADS-B
Tue 12:42:42 AM 9.3970 -75.9630 137° Southeast 478 550 35,000  Level FlightAware ADS-B
Tue 12:43:32 AM 9.3280 -75.8980 137° Southeast 478 550 35,000  Level FlightAware ADS-B
Tue 12:44:12 AM 9.2730 -75.8460 137° Southeast 478 550 35,000  Level FlightAware ADS-B
Tue 12:44:52 AM 9.2180 -75.7940 137° Southeast 478 550 35,000  Level FlightAware ADS-B
Tue 12:45:32 AM 9.1630 -75.7420 137° Southeast 478 550 35,000  Level FlightAware ADS-B
Tue 12:46:12 AM 9.1080 -75.6900 137° Southeast 478 550 35,000  Level FlightAware ADS-B
Tue 12:47:02 AM 9.0400 -75.6250 137° Southeast 478 550 35,000  Level FlightAware ADS-B
Tue 12:47:42 AM 8.9850 -75.5740 138° Southeast 478 550 35,000  Level FlightAware ADS-B
Tue 12:48:22 AM 8.9300 -75.5220 137° Southeast 478 550 35,000  Level FlightAware ADS-B
Tue 12:49:02 AM 8.8750 -75.4700 137° Southeast 478 550 35,000  Level FlightAware ADS-B
Tue 12:49:42 AM 8.8200 -75.4180 137° Southeast 478 550 35,000 15 Level FlightAware ADS-B
Tue 12:52:00 AM 8.5906 -75.2143 139° Southeast  Level FlightAware Approximate
Tue 12:53:00 AM 8.4909 -75.1258 139° Southeast  Level FlightAware Approximate
Tue 12:54:00 AM 8.3911 -75.0374 139° Southeast  Level FlightAware Approximate
Tue 12:55:00 AM 8.2913 -74.9490 139° Southeast  Level FlightAware Approximate
Tue 12:56:00 AM 8.1915 -74.8607 139° Southeast  Level FlightAware Approximate
Tue 12:57:00 AM 8.0917 -74.7724 139° Southeast  Level FlightAware Approximate
Tue 12:58:00 AM 7.9918 -74.6841 139° Southeast  Level FlightAware Approximate
Tue 12:59:00 AM 7.8920 -74.5959 139° Southeast  Level FlightAware Approximate
Tue 01:00:00 AM 7.7921 -74.5077 139° Southeast  Level FlightAware Approximate
Tue 01:01:00 AM 7.6932 -74.4175 138° Southeast  Level FlightAware Approximate
Tue 01:02:00 AM 7.5949 -74.3276 138° Southeast  Level FlightAware Approximate
Tue 01:03:00 AM 7.4965 -74.2377 138° Southeast  Level FlightAware Approximate
Tue 01:04:00 AM 7.3982 -74.1479 138° Southeast  Level FlightAware Approximate
Tue 01:05:00 AM 7.2998 -74.0581 138° Southeast  Level FlightAware Approximate
Tue 01:06:00 AM 7.2014 -73.9684 138° Southeast  Level FlightAware Approximate
Tue 01:07:00 AM 7.1030 -73.8787 138° Southeast  Level FlightAware Approximate
Tue 01:08:00 AM 7.0023 -73.7922 152° Southeast  Level FlightAware Approximate
Tue 01:09:00 AM 6.8856 -73.7287 152° Southeast  Level FlightAware Approximate
Tue 01:10:00 AM 6.7688 -73.6652 152° Southeast  Level FlightAware Approximate
Tue 01:11:00 AM 6.6520 -73.6018 152° Southeast  Level FlightAware Approximate
Tue 01:12:00 AM 6.5353 -73.5384 152° Southeast  Level FlightAware Approximate
Tue 01:13:00 AM 6.4184 -73.4750 152° Southeast  Level FlightAware Approximate
Tue 01:14:00 AM 6.3017 -73.4117 152° Southeast  Level FlightAware Approximate
Tue 01:15:00 AM 6.1848 -73.3483 152° Southeast  Level FlightAware Approximate
Tue 01:16:00 AM 6.0680 -73.2850 152° Southeast  Level FlightAware Approximate
Tue 01:17:00 AM 5.9512 -73.2218 152° Southeast  Level FlightAware Approximate
Tue 01:18:00 AM 5.8344 -73.1585 152° Southeast  Level FlightAware Approximate
Tue 01:19:00 AM 5.7175 -73.0953 152° Southeast  Level FlightAware Approximate
Tue 01:20:00 AM 5.6007 -73.0321 152° Southeast  Level FlightAware Approximate
Tue 01:21:00 AM 5.4838 -72.9690 152° Southeast  Level FlightAware Approximate
Tue 01:22:00 AM 5.3670 -72.9058 152° Southeast  Level FlightAware Approximate
Tue 01:23:00 AM 5.2501 -72.8427 152° Southeast  Level FlightAware Approximate
Tue 01:24:00 AM 5.1332 -72.7796 152° Southeast  Level FlightAware Approximate
Tue 01:25:00 AM 5.0163 -72.7166 152° Southeast  Level FlightAware Approximate
Tue 01:26:00 AM 4.8994 -72.6535 152° Southeast  Level FlightAware Approximate
Tue 01:27:00 AM 4.7826 -72.5905 152° Southeast  Level FlightAware Approximate
Tue 01:28:00 AM 4.6657 -72.5275 152° Southeast  Level FlightAware Approximate
Tue 01:29:00 AM 4.5488 -72.4645 152° Southeast  Level FlightAware Approximate
Tue 01:30:00 AM 4.4318 -72.4016 152° Southeast  Level FlightAware Approximate
Tue 01:31:00 AM 4.3149 -72.3386 152° Southeast  Level FlightAware Approximate
Tue 01:32:00 AM 4.1980 -72.2757 152° Southeast  Level FlightAware Approximate
Tue 01:33:00 AM 4.0811 -72.2128 152° Southeast  Level FlightAware Approximate
Tue 01:34:00 AM 3.9642 -72.1499 152° Southeast  Level FlightAware Approximate
Tue 01:35:00 AM 3.8535 -72.0770 145° Southeast  Level FlightAware Approximate
Tue 01:36:00 AM 3.7450 -72.0004 145° Southeast  Level FlightAware Approximate
Tue 01:37:00 AM 3.6365 -71.9239 145° Southeast  Level FlightAware Approximate
Tue 01:38:00 AM 3.5279 -71.8473 145° Southeast  Level FlightAware Approximate
Tue 01:39:00 AM 3.4192 -71.7707 145° Southeast  Level FlightAware Approximate
Tue 01:40:00 AM 3.3105 -71.6941 145° Southeast  Level FlightAware Approximate
Tue 01:41:00 AM 3.2018 -71.6175 145° Southeast  Level FlightAware Approximate
Tue 01:42:00 AM 3.0931 -71.5409 145° Southeast  Level FlightAware Approximate
Tue 01:43:00 AM 2.9843 -71.4643 145° Southeast  Level FlightAware Approximate
Tue 01:44:00 AM 2.8756 -71.3877 145° Southeast  Level FlightAware Approximate
Tue 01:45:00 AM 2.7668 -71.3112 145° Southeast  Level FlightAware Approximate
Tue 01:46:00 AM 2.6581 -71.2347 145° Southeast  Level FlightAware Approximate
Tue 01:47:00 AM 2.5494 -71.1582 145° Southeast  Level FlightAware Approximate
Tue 01:48:00 AM 2.4406 -71.0817 145° Southeast  Level FlightAware Approximate
Tue 01:49:00 AM 2.3318 -71.0052 145° Southeast  Level FlightAware Approximate
Tue 01:50:00 AM 2.2231 -70.9287 145° Southeast  Level FlightAware Approximate
Tue 01:51:00 AM 2.1143 -70.8522 145° Southeast  Level FlightAware Approximate
Tue 01:52:00 AM 2.0055 -70.7758 145° Southeast  Level FlightAware Approximate
Tue 01:53:00 AM 1.8967 -70.6993 145° Southeast  Level FlightAware Approximate
Tue 01:54:00 AM 1.7880 -70.6229 145° Southeast  Level FlightAware Approximate
Tue 01:55:00 AM 1.6792 -70.5464 145° Southeast  Level FlightAware Approximate
Tue 01:56:00 AM 1.5704 -70.4700 145° Southeast  Level FlightAware Approximate
Tue 01:57:00 AM 1.4616 -70.3936 145° Southeast  Level FlightAware Approximate
Tue 01:58:00 AM 1.3528 -70.3172 145° Southeast  Level FlightAware Approximate
Tue 01:59:00 AM 1.2442 -70.2410 145° Southeast  Level FlightAware Approximate
Tue 02:00:00 AM 1.1441 -70.1539 138° Southeast  Level FlightAware Approximate
Tue 02:01:00 AM 1.0450 -70.0657 138° Southeast  Level FlightAware Approximate
Tue 02:02:00 AM 0.9459 -69.9775 138° Southeast  Level FlightAware Approximate
Tue 02:03:00 AM 0.8468 -69.8892 138° Southeast  Level FlightAware Approximate
Tue 02:04:00 AM 0.7476 -69.8010 138° Southeast  Level FlightAware Approximate
Tue 02:05:00 AM 0.6485 -69.7128 138° Southeast  Level FlightAware Approximate
Tue 02:06:00 AM 0.5494 -69.6246 138° Southeast  Level FlightAware Approximate
Tue 02:07:00 AM 0.4502 -69.5364 138° Southeast  Level FlightAware Approximate
Tue 02:08:00 AM 0.3511 -69.4482 138° Southeast  Level FlightAware Approximate
Tue 02:09:00 AM 0.2520 -69.3600 138° Southeast  Level FlightAware Approximate
Tue 02:10:00 AM 0.1528 -69.2718 138° Southeast  Level FlightAware Approximate
Tue 02:11:00 AM 0.0537 -69.1836 138° Southeast  Level FlightAware Approximate
Tue 02:12:00 AM -0.0454 -69.0954 138° Southeast  Level FlightAware Approximate
Tue 02:13:00 AM -0.1446 -69.0072 138° Southeast  Level FlightAware Approximate
Tue 02:14:00 AM -0.2437 -68.9190 138° Southeast  Level FlightAware Approximate
Tue 02:15:00 AM -0.3428 -68.8308 138° Southeast  Level FlightAware Approximate
Tue 02:16:00 AM -0.4420 -68.7426 138° Southeast  Level FlightAware Approximate
Tue 02:17:00 AM -0.5411 -68.6544 138° Southeast  Level FlightAware Approximate
Tue 02:18:00 AM -0.6402 -68.5662 138° Southeast  Level FlightAware Approximate
Tue 02:19:00 AM -0.7394 -68.4780 138° Southeast  Level FlightAware Approximate
Tue 02:20:00 AM -0.8385 -68.3897 138° Southeast  Level FlightAware Approximate
Tue 02:21:00 AM -0.9376 -68.3015 138° Southeast  Level FlightAware Approximate
Tue 02:22:00 AM -1.0367 -68.2133 138° Southeast  Level FlightAware Approximate
Tue 02:23:00 AM -1.1359 -68.1251 138° Southeast  Level FlightAware Approximate
Tue 02:24:00 AM -1.2350 -68.0368 138° Southeast  Level FlightAware Approximate
Tue 02:25:00 AM -1.3341 -67.9486 138° Southeast  Level FlightAware Approximate
Tue 02:26:00 AM -1.4332 -67.8603 138° Southeast  Level FlightAware Approximate
Tue 02:27:00 AM -1.5323 -67.7721 138° Southeast  Level FlightAware Approximate
Tue 02:28:00 AM -1.6314 -67.6838 138° Southeast  Level FlightAware Approximate
Tue 02:29:00 AM -1.7305 -67.5955 138° Southeast  Level FlightAware Approximate
Tue 02:30:00 AM -1.8296 -67.5072 138° Southeast  Level FlightAware Approximate
Tue 02:31:00 AM -1.9287 -67.4190 138° Southeast  Level FlightAware Approximate
Tue 02:32:00 AM -2.0278 -67.3307 138° Southeast  Level FlightAware Approximate
Tue 02:33:00 AM -2.1269 -67.2423 138° Southeast  Level FlightAware Approximate
Tue 02:34:00 AM -2.2260 -67.1540 138° Southeast  Level FlightAware Approximate
Tue 02:35:00 AM -2.3251 -67.0657 138° Southeast  Level FlightAware Approximate
Tue 02:36:00 AM -2.4241 -66.9773 138° Southeast  Level FlightAware Approximate
Tue 02:37:00 AM -2.5232 -66.8889 138° Southeast  Level FlightAware Approximate
Tue 02:38:00 AM -2.6222 -66.8006 138° Southeast  Level FlightAware Approximate
Tue 02:39:00 AM -2.7213 -66.7122 138° Southeast  Level FlightAware Approximate
Tue 02:40:00 AM -2.8203 -66.6238 138° Southeast  Level FlightAware Approximate
Tue 02:41:00 AM -2.9194 -66.5353 138° Southeast  Level FlightAware Approximate
Tue 02:42:00 AM -3.0184 -66.4469 138° Southeast  Level FlightAware Approximate
Tue 02:43:00 AM -3.1174 -66.3585 138° Southeast  Level FlightAware Approximate
Tue 02:44:00 AM -3.2164 -66.2700 138° Southeast  Level FlightAware Approximate
Tue 02:45:00 AM -3.3154 -66.1815 138° Southeast  Level FlightAware Approximate
Tue 02:46:00 AM -3.4144 -66.0930 138° Southeast  Level FlightAware Approximate
Tue 02:47:00 AM -3.5134 -66.0045 138° Southeast  Level FlightAware Approximate
Tue 02:48:00 AM -3.6124 -65.9159 138° Southeast  Level FlightAware Approximate
Tue 02:49:00 AM -3.7114 -65.8274 138° Southeast  Level FlightAware Approximate
Tue 02:50:00 AM -3.8104 -65.7388 138° Southeast  Level FlightAware Approximate
Tue 02:51:00 AM -3.9093 -65.6502 138° Southeast  Level FlightAware Approximate
Tue 02:52:00 AM -4.0083 -65.5616 138° Southeast  Level FlightAware Approximate
Tue 02:53:00 AM -4.1072 -65.4729 138° Southeast  Level FlightAware Approximate
Tue 02:54:00 AM -4.2061 -65.3843 138° Southeast  Level FlightAware Approximate
Tue 02:55:00 AM -4.3051 -65.2956 138° Southeast  Level FlightAware Approximate
Tue 02:56:00 AM -4.4040 -65.2069 138° Southeast  Level FlightAware Approximate
Tue 02:57:00 AM -4.5029 -65.1181 138° Southeast  Level FlightAware Approximate
Tue 02:58:00 AM -4.6018 -65.0294 138° Southeast  Level FlightAware Approximate
Tue 02:59:00 AM -4.7006 -64.9406 138° Southeast  Level FlightAware Approximate
Tue 03:00:00 AM -4.7995 -64.8518 138° Southeast  Level FlightAware Approximate
Tue 03:01:00 AM -4.8983 -64.7630 138° Southeast  Level FlightAware Approximate
Tue 03:02:00 AM -4.9972 -64.6741 138° Southeast  Level FlightAware Approximate
Tue 03:03:00 AM -5.0960 -64.5852 138° Southeast  Level FlightAware Approximate
Tue 03:04:00 AM -5.1948 -64.4963 138° Southeast  Level FlightAware Approximate
Tue 03:05:00 AM -5.2936 -64.4074 138° Southeast  Level FlightAware Approximate
Tue 03:06:00 AM -5.3924 -64.3184 138° Southeast  Level FlightAware Approximate
Tue 03:07:00 AM -5.4912 -64.2294 138° Southeast  Level FlightAware Approximate
Tue 03:08:00 AM -5.5900 -64.1404 138° Southeast  Level FlightAware Approximate
Tue 03:09:00 AM -5.6887 -64.0513 138° Southeast  Level FlightAware Approximate
Tue 03:10:00 AM -5.7875 -63.9622 138° Southeast  Level FlightAware Approximate
Tue 03:11:00 AM -5.8862 -63.8731 138° Southeast  Level FlightAware Approximate
Tue 03:12:00 AM -5.9849 -63.7839 138° Southeast  Level FlightAware Approximate
Tue 03:13:00 AM -6.0836 -63.6948 138° Southeast  Level FlightAware Approximate
Tue 03:14:00 AM -6.1823 -63.6055 138° Southeast  Level FlightAware Approximate
Tue 03:15:00 AM -6.2810 -63.5163 138° Southeast  Level FlightAware Approximate
Tue 03:16:00 AM -6.3796 -63.4270 138° Southeast  Level FlightAware Approximate
Tue 03:17:00 AM -6.4782 -63.3377 138° Southeast  Level FlightAware Approximate
Tue 03:18:00 AM -6.5769 -63.2483 138° Southeast  Level FlightAware Approximate
Tue 03:19:00 AM -6.6755 -63.1589 138° Southeast  Level FlightAware Approximate
Tue 03:20:00 AM -6.7741 -63.0695 138° Southeast  Level FlightAware Approximate
Tue 03:21:00 AM -6.8726 -62.9800 138° Southeast  Level FlightAware Approximate
Tue 03:22:00 AM -6.9712 -62.8905 138° Southeast  Level FlightAware Approximate
Tue 03:23:00 AM -7.0697 -62.8010 138° Southeast  Level FlightAware Approximate
Tue 03:24:00 AM -7.1682 -62.7114 138° Southeast  Level FlightAware Approximate
Tue 03:25:00 AM -7.2667 -62.6218 138° Southeast  Level FlightAware Approximate
Tue 03:26:00 AM -7.3652 -62.5322 138° Southeast  Level FlightAware Approximate
Tue 03:27:00 AM -7.4637 -62.4425 138° Southeast  Level FlightAware Approximate
Tue 03:28:00 AM -7.5622 -62.3527 138° Southeast  Level FlightAware Approximate
Tue 03:29:00 AM -7.6606 -62.2630 138° Southeast  Level FlightAware Approximate
Tue 03:30:00 AM -7.7590 -62.1731 138° Southeast  Level FlightAware Approximate
Tue 03:31:00 AM -7.8574 -62.0833 138° Southeast  Level FlightAware Approximate
Tue 03:32:00 AM -7.9558 -61.9934 138° Southeast  Level FlightAware Approximate
Tue 03:33:00 AM -8.0541 -61.9035 138° Southeast  Level FlightAware Approximate
Tue 03:34:00 AM -8.1530 -61.8130 138° Southeast  Level FlightAware Approximate
Tue 03:35:00 AM -8.2518 -61.7225 138° Southeast  Level FlightAware Approximate
Tue 03:36:00 AM -8.3506 -61.6319 138° Southeast  Level FlightAware Approximate
Tue 03:37:00 AM -8.4494 -61.5413 138° Southeast  Level FlightAware Approximate
Tue 03:38:00 AM -8.5482 -61.4506 138° Southeast  Level FlightAware Approximate
Tue 03:39:00 AM -8.6470 -61.3599 138° Southeast  Level FlightAware Approximate
Tue 03:40:00 AM -8.7457 -61.2692 138° Southeast  Level FlightAware Approximate
Tue 03:41:00 AM -8.8444 -61.1784 138° Southeast  Level FlightAware Approximate
Tue 03:42:00 AM -8.9431 -61.0876 138° Southeast  Level FlightAware Approximate
Tue 03:43:00 AM -9.0418 -60.9967 138° Southeast  Level FlightAware Approximate
Tue 03:44:00 AM -9.1405 -60.9057 138° Southeast  Level FlightAware Approximate
Tue 03:45:00 AM -9.2391 -60.8147 138° Southeast  Level FlightAware Approximate
Tue 03:46:00 AM -9.3377 -60.7237 138° Southeast  Level FlightAware Approximate
Tue 03:47:00 AM -9.4363 -60.6326 138° Southeast  Level FlightAware Approximate
Tue 03:48:00 AM -9.5349 -60.5414 138° Southeast  Level FlightAware Approximate
Tue 03:49:00 AM -9.6334 -60.4502 138° Southeast  Level FlightAware Approximate
Tue 03:50:00 AM -9.7319 -60.3590 138° Southeast  Level FlightAware Approximate
Tue 03:51:00 AM -9.8304 -60.2677 138° Southeast  Level FlightAware Approximate
Tue 03:52:00 AM -9.9289 -60.1763 138° Southeast  Level FlightAware Approximate
Tue 03:53:00 AM -10.0273 -60.0849 138° Southeast  Level FlightAware Approximate
Tue 03:54:00 AM -10.1257 -59.9934 138° Southeast  Level FlightAware Approximate
Tue 03:55:00 AM -10.2243 -59.9017 138° Southeast  Level FlightAware Approximate
Tue 03:56:00 AM -10.3228 -59.8100 138° Southeast  Level FlightAware Approximate
Tue 03:57:00 AM -10.4213 -59.7182 137° Southeast  Level FlightAware Approximate
Tue 03:58:00 AM -10.5198 -59.6263 137° Southeast  Level FlightAware Approximate
Tue 03:59:00 AM -10.6183 -59.5344 137° Southeast  Level FlightAware Approximate
Tue 04:00:00 AM -10.7167 -59.4424 137° Southeast  Level FlightAware Approximate
Tue 04:01:00 AM -10.8151 -59.3504 137° Southeast  Level FlightAware Approximate
Tue 04:02:00 AM -10.9135 -59.2583 137° Southeast  Level FlightAware Approximate
Tue 04:03:00 AM -11.0118 -59.1661 137° Southeast  Level FlightAware Approximate
Tue 04:04:00 AM -11.1102 -59.0739 137° Southeast  Level FlightAware Approximate
Tue 04:05:00 AM -11.2085 -58.9816 137° Southeast  Level FlightAware Approximate
Tue 04:06:00 AM -11.3067 -58.8892 137° Southeast  Level FlightAware Approximate
Tue 04:07:00 AM -11.4050 -58.7968 137° Southeast  Level FlightAware Approximate
Tue 04:08:00 AM -11.5032 -58.7043 137° Southeast  Level FlightAware Approximate
Tue 04:09:00 AM -11.6014 -58.6118 137° Southeast  Level FlightAware Approximate
Tue 04:10:00 AM -11.6995 -58.5192 137° Southeast  Level FlightAware Approximate
Tue 04:11:00 AM -11.7976 -58.4265 137° Southeast  Level FlightAware Approximate
Tue 04:12:00 AM -11.8957 -58.3338 137° Southeast  Level FlightAware Approximate
Tue 04:13:00 AM -11.9938 -58.2410 137° Southeast  Level FlightAware Approximate
Tue 04:14:00 AM -12.0918 -58.1481 137° Southeast  Level FlightAware Approximate
Tue 04:15:00 AM -12.1898 -58.0551 137° Southeast  Level FlightAware Approximate
Tue 04:16:00 AM -12.2878 -57.9621 137° Southeast  Level FlightAware Approximate
Tue 04:17:00 AM -12.3857 -57.8691 137° Southeast  Level FlightAware Approximate
Tue 04:18:00 AM -12.4836 -57.7759 137° Southeast  Level FlightAware Approximate
Tue 04:19:00 AM -12.5815 -57.6827 137° Southeast  Level FlightAware Approximate
Tue 04:20:00 AM -12.6793 -57.5894 137° Southeast  Level FlightAware Approximate
Tue 04:21:00 AM -12.7772 -57.4960 137° Southeast  Level FlightAware Approximate
Tue 04:22:00 AM -12.8749 -57.4026 137° Southeast  Level FlightAware Approximate
Tue 04:23:00 AM -12.9727 -57.3091 137° Southeast  Level FlightAware Approximate
Tue 04:24:00 AM -13.0704 -57.2155 137° Southeast  Level FlightAware Approximate
Tue 04:25:00 AM -13.1681 -57.1218 137° Southeast  Level FlightAware Approximate
Tue 04:26:00 AM -13.2657 -57.0281 137° Southeast  Level FlightAware Approximate
Tue 04:27:00 AM -13.3633 -56.9343 137° Southeast  Level FlightAware Approximate
Tue 04:28:00 AM -13.4609 -56.8404 137° Southeast  Level FlightAware Approximate
Tue 04:29:00 AM -13.5584 -56.7465 137° Southeast  Level FlightAware Approximate
Tue 04:30:00 AM -13.6559 -56.6524 137° Southeast  Level FlightAware Approximate
Tue 04:31:00 AM -13.7534 -56.5583 137° Southeast  Level FlightAware Approximate
Tue 04:32:00 AM -13.8508 -56.4641 137° Southeast  Level FlightAware Approximate
Tue 04:33:00 AM -13.9482 -56.3699 137° Southeast  Level FlightAware Approximate
Tue 04:34:00 AM -14.0456 -56.2755 137° Southeast  Level FlightAware Approximate
Tue 04:35:00 AM -14.1429 -56.1811 137° Southeast  Level FlightAware Approximate
Tue 04:36:00 AM -14.2402 -56.0866 137° Southeast  Level FlightAware Approximate
Tue 04:37:00 AM -14.3374 -55.9920 137° Southeast  Level FlightAware Approximate
Tue 04:38:00 AM -14.4347 -55.8973 137° Southeast  Level FlightAware Approximate
Tue 04:39:00 AM -14.5318 -55.8025 137° Southeast  Level FlightAware Approximate
Tue 04:40:00 AM -14.6290 -55.7077 137° Southeast  Level FlightAware Approximate
Tue 04:41:00 AM -14.7261 -55.6128 137° Southeast  Level FlightAware Approximate
Tue 04:42:00 AM -14.8231 -55.5178 137° Southeast  Level FlightAware Approximate
Tue 04:43:00 AM -14.9201 -55.4227 137° Southeast  Level FlightAware Approximate
Tue 04:44:00 AM -15.0171 -55.3275 137° Southeast  Level FlightAware Approximate
Tue 04:45:00 AM -15.1141 -55.2322 137° Southeast  Level FlightAware Approximate
Tue 04:46:00 AM -15.2110 -55.1368 136° Southeast  Level FlightAware Approximate
Tue 04:47:00 AM -15.3078 -55.0414 136° Southeast  Level FlightAware Approximate
Tue 04:48:00 AM -15.4046 -54.9459 136° Southeast  Level FlightAware Approximate
Tue 04:49:00 AM -15.5014 -54.8503 136° Southeast  Level FlightAware Approximate
Tue 04:50:00 AM -15.5982 -54.7546 136° Southeast  Level FlightAware Approximate
Tue 04:51:00 AM -15.6949 -54.6587 136° Southeast  Level FlightAware Approximate
Tue 04:52:00 AM -15.7915 -54.5629 136° Southeast  Level FlightAware Approximate
Tue 04:53:00 AM -15.8881 -54.4669 136° Southeast  Level FlightAware Approximate
Tue 04:54:00 AM -15.9847 -54.3708 136° Southeast  Level FlightAware Approximate
Tue 04:55:00 AM -16.0812 -54.2746 136° Southeast  Level FlightAware Approximate
Tue 04:56:00 AM -16.1777 -54.1784 136° Southeast  Level FlightAware Approximate
Tue 04:57:00 AM -16.2741 -54.0820 136° Southeast  Level FlightAware Approximate
Tue 04:58:00 AM -16.3705 -53.9856 136° Southeast  Level FlightAware Approximate
Tue 04:59:00 AM -16.4669 -53.8890 136° Southeast  Level FlightAware Approximate
Tue 05:00:00 AM -16.5632 -53.7924 136° Southeast  Level FlightAware Approximate
Tue 05:01:00 AM -16.6595 -53.6956 136° Southeast  Level FlightAware Approximate
Tue 05:02:00 AM -16.7557 -53.5988 136° Southeast  Level FlightAware Approximate
Tue 05:03:00 AM -16.8519 -53.5019 136° Southeast  Level FlightAware Approximate
Tue 05:04:00 AM -16.9480 -53.4048 136° Southeast  Level FlightAware Approximate
Tue 05:05:00 AM -17.0441 -53.3077 136° Southeast  Level FlightAware Approximate
Tue 05:06:00 AM -17.1401 -53.2105 136° Southeast  Level FlightAware Approximate
Tue 05:07:00 AM -17.2361 -53.1131 136° Southeast  Level FlightAware Approximate
Tue 05:08:00 AM -17.3320 -53.0157 136° Southeast  Level FlightAware Approximate
Tue 05:09:00 AM -17.4279 -52.9182 136° Southeast  Level FlightAware Approximate
Tue 05:10:00 AM -17.5238 -52.8205 136° Southeast  Level FlightAware Approximate
Tue 05:11:00 AM -17.6196 -52.7228 136° Southeast  Level FlightAware Approximate
Tue 05:12:00 AM -17.7153 -52.6250 136° Southeast  Level FlightAware Approximate
Tue 05:13:00 AM -17.8110 -52.5270 136° Southeast  Level FlightAware Approximate
Tue 05:14:00 AM -17.9067 -52.4290 136° Southeast  Level FlightAware Approximate
Tue 05:15:00 AM -18.0023 -52.3308 136° Southeast  Level FlightAware Approximate
Tue 05:16:00 AM -18.0979 -52.2325 136° Southeast  Level FlightAware Approximate
Tue 05:17:00 AM -18.1934 -52.1342 136° Southeast  Level FlightAware Approximate
Tue 05:18:00 AM -18.2888 -52.0357 136° Southeast  Level FlightAware Approximate
Tue 05:19:00 AM -18.3843 -51.9371 136° Southeast  Level FlightAware Approximate
Tue 05:20:00 AM -18.4796 -51.8384 136° Southeast  Level FlightAware Approximate
Tue 05:21:00 AM -18.5749 -51.7396 136° Southeast  Level FlightAware Approximate
Tue 05:22:00 AM -18.6702 -51.6407 135° Southeast  Level FlightAware Approximate
Tue 05:22:37 AM -19.2080 -50.4440 135° Southeast 490 564 39,000  Level FlightAware ADS-B
Tue 05:23:00 AM -18.7654 -51.5416 135° Southeast  Level FlightAware Approximate
Tue 05:23:12 AM -19.2550 -50.3900 133° Southeast 490 564 39,000  Level FlightAware ADS-B
Tue 05:23:57 AM -19.3330 -50.3070 135° Southeast 489 563 39,000  Level FlightAware ADS-B
Tue 05:24:37 AM -19.3910 -50.2430 134° Southeast 488 562 39,000  Level FlightAware ADS-B
Tue 05:25:22 AM -19.4530 -50.1730 133° Southeast 488 562 39,000  Level FlightAware ADS-B
Tue 05:26:17 AM -19.5510 -50.0660 134° Southeast 488 562 39,000  Level FlightAware ADS-B
Tue 05:27:02 AM -19.6210 -49.9890 134° Southeast 488 562 39,000  Level FlightAware ADS-B
Tue 05:27:42 AM -19.6830 -49.9220 135° Southeast 487 560 39,000  Level FlightAware ADS-B
Tue 05:28:27 AM -19.7530 -49.8450 134° Southeast 487 560 39,000  Level FlightAware ADS-B
Tue 05:29:07 AM -19.8140 -49.7790 134° Southeast 487 560 39,000  Level FlightAware ADS-B
Tue 05:29:47 AM -19.8800 -49.7070 134° Southeast 487 560 39,000  Level FlightAware ADS-B
Tue 05:30:32 AM -19.9510 -49.6290 134° Southeast 487 560 39,000  Level FlightAware ADS-B
Tue 05:31:12 AM -20.0130 -49.5600 134° Southeast 487 560 39,000  Level FlightAware ADS-B
Tue 05:31:57 AM -20.0860 -49.4810 135° Southeast 487 560 39,000  Level FlightAware ADS-B
Tue 05:32:37 AM -20.1480 -49.4120 134° Southeast 488 562 39,000  Level FlightAware ADS-B
Tue 05:33:17 AM -20.2080 -49.3460 134° Southeast 488 562 39,000  Level FlightAware ADS-B
Tue 05:34:02 AM -20.2800 -49.2670 134° Southeast 488 562 39,000  Level FlightAware ADS-B
Tue 05:34:42 AM -20.3420 -49.1990 134° Southeast 487 560 39,000  Level FlightAware ADS-B
Tue 05:35:22 AM -20.3970 -49.1370 133° Southeast 486 559 39,000  Level FlightAware ADS-B
Tue 05:36:02 AM -20.4620 -49.0650 134° Southeast 486 559 39,000  Level FlightAware ADS-B
Tue 05:36:42 AM -20.5290 -48.9910 134° Southeast 485 558 39,000  Level FlightAware ADS-B
Tue 05:37:22 AM -20.5800 -48.9350 134° Southeast 485 558 39,000  Level FlightAware ADS-B
Tue 05:37:57 AM -20.6410 -48.8660 133° Southeast 484 557 39,000  Level FlightAware ADS-B
Tue 05:38:37 AM -20.7000 -48.8010 134° Southeast 485 558 39,000  Level FlightAware ADS-B
Tue 05:39:32 AM -20.7920 -48.6980 134° Southeast 485 558 39,000  Level FlightAware ADS-B
Tue 05:40:12 AM -20.8490 -48.6340 134° Southeast 486 559 39,000  Level FlightAware ADS-B
Tue 05:40:52 AM -20.9110 -48.5640 133° Southeast 485 558 39,000  Level FlightAware ADS-B
Tue 05:41:32 AM -20.9760 -48.4910 134° Southeast 486 559 39,000  Level FlightAware ADS-B
Tue 05:42:12 AM -21.0360 -48.4240 134° Southeast 486 559 39,000  Level FlightAware ADS-B
Tue 05:42:52 AM -21.1000 -48.3510 133° Southeast 486 559 39,000  Level FlightAware ADS-B
Tue 05:43:42 AM -21.1770 -48.2650 134° Southeast 486 559 39,000  Level FlightAware ADS-B
Tue 05:44:22 AM -21.2290 -48.2050 133° Southeast 486 559 39,000  Level FlightAware ADS-B
Tue 05:45:02 AM -21.3000 -48.1250 134° Southeast 486 559 39,000  Level FlightAware ADS-B
Tue 05:45:42 AM -21.3600 -48.0570 133° Southeast 486 559 39,000  Level FlightAware ADS-B
Tue 05:46:32 AM -21.4440 -47.9620 134° Southeast 486 559 39,000  Level FlightAware ADS-B
Tue 05:47:12 AM -21.5060 -47.8910 133° Southeast 486 559 39,000  Level FlightAware ADS-B
Tue 05:47:47 AM -21.5610 -47.8290 134° Southeast 486 559 39,000  Level FlightAware ADS-B
Tue 05:48:27 AM -21.6240 -47.7580 134° Southeast 485 558 39,000 -212 Level FlightAware ADS-B
Tue 05:49:12 AM -21.6900 -47.6830 133° Southeast 488 562 38,700 -1,059 Descending FlightAware ADS-B
Tue 05:49:52 AM -21.7540 -47.6090 133° Southeast 497 572 37,500 -1,200 Descending FlightAware ADS-B
Tue 05:50:37 AM -21.8260 -47.5260 133° Southeast 494 568 37,000 -353 Descending FlightAware ADS-B
Tue 05:51:17 AM -21.8880 -47.4560 134° Southeast 495 570 37,000  Level FlightAware ADS-B
Tue 05:51:57 AM -21.9490 -47.3860 133° Southeast 495 570 37,000  Level FlightAware ADS-B
Tue 05:52:42 AM -22.0340 -47.3250 146° Southeast 481 554 37,000 -1,129 Level FlightAware ADS-B
Tue 05:53:22 AM -22.1170 -47.2890 158° South 488 562 35,400 -2,188 Descending FlightAware ADS-B
Tue 05:54:07 AM -22.2120 -47.2500 159° South 482 555 33,900 -3,529 Descending FlightAware ADS-B
Tue 05:54:47 AM -22.3000 -47.2150 160° South 488 562 30,400 -4,425 Descending FlightAware ADS-B
Tue 05:55:27 AM -22.3670 -47.1870 159° South 474 545 28,000 -3,663 Descending FlightAware ADS-B
Tue 05:56:22 AM -22.4760 -47.1410 159° South 437 503 24,600 -3,660 Descending FlightAware ADS-B
Tue 05:57:07 AM -22.5540 -47.1070 158° South 417 480 21,900 -3,529 Descending FlightAware ADS-B
Tue 05:57:47 AM -22.6260 -47.0770 159° South 404 465 19,600 -2,824 Descending FlightAware ADS-B
Tue 05:58:32 AM -22.7110 -47.0420 159° South 396 456 17,900 -2,118 Descending FlightAware ADS-B
Tue 05:59:12 AM -22.7740 -47.0150 158° South 391 450 16,600 -2,000 Descending FlightAware ADS-B
Tue 05:59:47 AM -22.8360 -46.9890 159° South 388 447 15,400 -1,624 Descending FlightAware ADS-B
Tue 06:00:37 AM -22.9130 -46.9570 159° South 372 428 14,300 -1,200 Descending FlightAware ADS-B
Tue 06:01:17 AM -22.9750 -46.9310 159° South 331 381 13,600 -1,425 Descending FlightAware ADS-B
Tue 06:01:57 AM -23.0280 -46.9090 159° South 308 354 12,400 -2,118 Descending FlightAware ADS-B
Tue 06:02:42 AM -23.0900 -46.8820 158° South 296 341 10,600 -2,160 Descending FlightAware ADS-B
Tue 06:03:12 AM -23.1250 -46.8670 158° South 292 336 9,700 -1,200 Descending FlightAware ADS-B
Tue 06:03:37 AM -23.1570 -46.8540 160° South 278 320 9,500 -764 Descending FlightAware ADS-B
Tue 06:04:07 AM -23.1930 -46.8390 159° South 269 310 9,000 -1,200 Descending FlightAware ADS-B
Tue 06:04:37 AM -23.2270 -46.8240 158° South 268 308 8,300 -1,309 Descending FlightAware ADS-B
Tue 06:05:02 AM -23.2560 -46.8120 159° South 261 300 7,800 -764 Descending FlightAware ADS-B
Tue 06:05:32 AM -23.2920 -46.7970 159° South 236 272 7,600 -400 Descending FlightAware ADS-B
Tue 06:06:02 AM -23.3180 -46.7860 159° South 233 268 7,400 -514 Descending FlightAware ADS-B
Tue 06:06:07 AM -23.3250 -46.7830 159° South 233 268 7,300 -514 Descending FlightAware ADS-B
Tue 06:06:37 AM -23.3570 -46.7690 158° South 230 265 7,100 -554 Descending FlightAware ADS-B
Tue 06:07:12 AM -23.3880 -46.7490 149° Southeast 234 269 6,700 -800 Descending FlightAware ADS-B
Tue 06:07:37 AM -23.4070 -46.7300 137° Southeast 235 270 6,300 -873 Descending FlightAware ADS-B
Tue 06:08:07 AM -23.4330 -46.7060 140° Southeast 221 254 5,900 -545 Descending FlightAware ADS-B
Tue 06:08:32 AM -23.4490 -46.6880 134° Southeast 206 237 5,800 -545 Descending FlightAware ADS-B
Tue 06:09:02 AM -23.4610 -46.6610 116° Southeast 198 228 5,400 -857 Descending FlightAware ADS-B
Tue 06:09:07 AM -23.4640 -46.6560 123° Southeast 196 226 5,300 -1,029 Descending FlightAware ADS-B
Tue 06:09:37 AM -23.4740 -46.6290 112° Southeast 192 221 4,800 -900 Descending FlightAware ADS-B
Tue 06:09:47 AM -23.4740 -46.6230 90° East 196 226 4,700 -1,000 Descending FlightAware ADS-B
Tue 06:10:07 AM -23.4680 -46.5960 76° East 193 222 4,300 -1,091 Descending FlightAware ADS-B
Tue 06:10:42 AM -23.4600 -46.5650 74° East 182 209 3,700 -1,067 Descending FlightAware ADS-B
Tue 06:10:52 AM -23.4570 -46.5550 72° East 177 204 3,500 -900 Descending FlightAware ADS-B
Tue 06:11:22 AM -23.4510 -46.5310 75° East 149 171 3,100 -800 Descending FlightAware ADS-B
Tue 06:11:37 AM -23.4480 -46.5200 73° East 148 170 2,900 -750 Descending FlightAware ADS-B
Tue 06:12:02 AM -23.4430 -46.5030 72° East 142 163 2,600 -764 Descending FlightAware ADS-B
Tue 06:12:32 AM -23.4380 -46.4840 74° East 139 160 2,200 -800 Descending FlightAware ADS-B

Login

Don't have an account? Register now (free) for customized features, flight alerts, and more!